createdAt,value
2018-05-25T00:01:05.657Z,99.90
2018-05-25T00:03:33.212Z,99.90
2018-05-25T00:06:00.840Z,99.90
2018-05-25T00:08:28.387Z,99.90
2018-05-25T00:10:55.921Z,99.90
2018-05-25T00:13:23.500Z,99.90
2018-05-25T00:15:51.033Z,99.90
2018-05-25T00:18:18.608Z,99.90
2018-05-25T00:20:46.129Z,99.90
2018-05-25T00:23:14.443Z,99.90
2018-05-25T00:25:42.740Z,99.90
2018-05-25T00:28:10.304Z,99.90
2018-05-25T00:30:37.837Z,99.90
2018-05-25T00:33:05.383Z,99.90
2018-05-25T00:35:33.710Z,99.90
2018-05-25T00:38:01.256Z,99.90
2018-05-25T00:40:28.787Z,99.90
2018-05-25T00:42:56.332Z,99.90
2018-05-25T00:45:23.877Z,99.90
2018-05-25T00:47:51.423Z,99.90
2018-05-25T00:50:19.737Z,99.90
2018-05-25T00:52:47.279Z,99.90
2018-05-25T00:55:26.641Z,99.90
2018-05-25T00:57:54.204Z,99.90
2018-05-25T01:00:21.760Z,99.90
2018-05-25T01:02:49.300Z,99.90
2018-05-25T01:05:16.837Z,99.90
2018-05-25T01:07:44.395Z,99.90
2018-05-25T01:10:12.699Z,99.90
2018-05-25T01:12:40.265Z,99.90
2018-05-25T01:15:08.577Z,99.90
2018-05-25T01:17:36.902Z,99.90
2018-05-25T01:20:04.478Z,99.90
2018-05-25T01:22:32.847Z,99.90
2018-05-25T01:25:00.385Z,99.90
2018-05-25T01:27:27.943Z,99.90
2018-05-25T01:29:55.505Z,99.90
2018-05-25T01:32:23.852Z,99.90
2018-05-25T01:34:51.838Z,99.90
2018-05-25T01:37:19.392Z,99.90
2018-05-25T01:39:47.708Z,99.90
2018-05-25T01:42:15.261Z,99.90
2018-05-25T01:44:42.792Z,99.90
2018-05-25T01:47:10.342Z,99.90
2018-05-25T01:49:38.668Z,99.90
2018-05-25T01:52:06.249Z,99.90
2018-05-25T01:54:33.808Z,99.90
2018-05-25T01:57:01.357Z,99.90
2018-05-25T01:59:28.899Z,99.90
2018-05-25T02:01:56.440Z,99.90
2018-05-25T02:04:24.020Z,99.90
2018-05-25T02:06:51.858Z,99.90
2018-05-25T02:09:20.169Z,99.90
2018-05-25T02:11:47.734Z,99.90
2018-05-25T02:14:15.256Z,99.90
2018-05-25T02:16:42.806Z,99.90
2018-05-25T02:19:11.117Z,99.90
2018-05-25T02:21:38.651Z,99.90
2018-05-25T02:24:06.213Z,99.90
2018-05-25T02:26:33.790Z,99.90
2018-05-25T02:29:01.947Z,99.90
2018-05-25T02:31:30.252Z,99.90
2018-05-25T02:33:58.579Z,99.90
2018-05-25T02:36:26.875Z,99.90
2018-05-25T02:38:54.420Z,99.90
2018-05-25T02:41:21.972Z,99.90
2018-05-25T02:43:49.516Z,99.90
2018-05-25T02:46:17.813Z,99.90
2018-05-25T02:48:46.128Z,99.90
2018-05-25T02:51:14.429Z,99.90
2018-05-25T02:53:42.739Z,99.90
2018-05-25T02:56:10.312Z,99.90
2018-05-25T02:58:38.632Z,99.90
2018-05-25T03:01:06.179Z,99.90
2018-05-25T03:03:33.725Z,99.90
2018-05-25T03:06:01.262Z,99.90
2018-05-25T03:08:29.568Z,99.90
2018-05-25T03:10:57.099Z,99.90
2018-05-25T03:13:24.652Z,99.90
2018-05-25T03:15:52.186Z,99.90
2018-05-25T03:18:19.725Z,99.90
2018-05-25T03:20:48.029Z,99.90
2018-05-25T03:23:15.577Z,99.90
2018-05-25T03:25:43.109Z,99.90
2018-05-25T03:28:10.649Z,99.90
2018-05-25T03:30:38.199Z,99.90
2018-05-25T03:33:05.769Z,99.90
2018-05-25T03:35:33.307Z,99.90
2018-05-25T03:38:01.624Z,99.90
2018-05-25T03:40:29.167Z,99.90
2018-05-25T03:42:56.707Z,99.90
2018-05-25T03:45:25.942Z,99.90
2018-05-25T03:47:53.637Z,99.90
2018-05-25T03:50:21.184Z,99.90
2018-05-25T03:52:48.744Z,99.90
2018-05-25T03:55:16.549Z,99.90
2018-05-25T03:57:44.909Z,99.90
2018-05-25T04:00:24.429Z,99.90
2018-05-25T04:02:52.012Z,99.90
2018-05-25T04:05:20.431Z,99.90
2018-05-25T04:07:47.981Z,99.90
2018-05-25T04:10:22.674Z,99.90
2018-05-25T04:12:50.305Z,99.90
2018-05-25T04:15:17.858Z,99.90
2018-05-25T04:17:45.445Z,99.90
2018-05-25T04:20:13.655Z,99.90
2018-05-25T04:23:20.355Z,99.90
2018-05-25T04:25:49.604Z,99.90
2018-05-25T04:28:17.161Z,99.90
2018-05-25T04:30:44.767Z,99.90
2018-05-25T04:33:12.308Z,99.90
2018-05-25T04:35:40.372Z,99.90
2018-05-25T04:38:07.893Z,99.90
2018-05-25T04:40:35.441Z,99.90
2018-05-25T04:43:06.247Z,99.90
2018-05-25T04:45:34.825Z,99.90
2018-05-25T04:48:02.392Z,99.90
2018-05-25T04:50:29.947Z,99.90
2018-05-25T04:52:57.489Z,99.90
2018-05-25T04:55:25.049Z,99.90
2018-05-25T04:57:52.687Z,99.90
2018-05-25T05:00:20.256Z,99.90
2018-05-25T05:02:48.613Z,99.90
2018-05-25T05:05:16.182Z,99.90
2018-05-25T05:07:43.744Z,99.90
2018-05-25T05:10:11.352Z,99.90
2018-05-25T05:12:38.933Z,99.90
2018-05-25T05:15:06.532Z,99.90
2018-05-25T05:17:34.898Z,99.90
2018-05-25T05:20:02.453Z,99.90
2018-05-25T05:22:30.044Z,99.90
2018-05-25T05:24:57.636Z,99.90
2018-05-25T05:27:26.413Z,99.90
2018-05-25T05:29:53.990Z,99.90
2018-05-25T05:32:21.596Z,99.90
2018-05-25T05:34:49.161Z,99.90
2018-05-25T05:37:17.057Z,99.90
2018-05-25T05:39:44.640Z,99.90
2018-05-25T05:42:13.379Z,99.90
2018-05-25T05:44:40.989Z,99.90
2018-05-25T05:47:09.472Z,99.90
2018-05-25T05:49:37.049Z,99.90
2018-05-25T05:52:04.612Z,99.90
2018-05-25T05:54:32.927Z,99.90
2018-05-25T05:57:01.190Z,99.90
2018-05-25T05:59:28.753Z,99.90
2018-05-25T06:01:58.356Z,99.90
2018-05-25T06:04:25.971Z,99.90
2018-05-25T06:06:54.957Z,99.90
2018-05-25T06:09:22.546Z,99.90
2018-05-25T06:11:51.856Z,99.90
2018-05-25T06:14:19.440Z,99.90
2018-05-25T06:16:46.991Z,99.90
2018-05-25T06:19:14.624Z,99.90
2018-05-25T06:21:42.204Z,99.90
2018-05-25T06:24:09.776Z,99.90
2018-05-25T06:26:37.343Z,99.90
2018-05-25T06:29:04.925Z,99.90
2018-05-25T06:31:33.403Z,99.90
2018-05-25T06:34:01.014Z,99.90
2018-05-25T06:36:29.847Z,99.90
2018-05-25T06:38:57.482Z,99.90
2018-05-25T06:41:25.057Z,99.90
2018-05-25T06:43:52.607Z,99.90
2018-05-25T06:46:22.153Z,99.90
2018-05-25T06:48:49.729Z,99.90
2018-05-25T06:51:19.019Z,99.90
2018-05-25T06:53:46.570Z,99.90
2018-05-25T06:56:14.136Z,99.90
2018-05-25T06:58:41.688Z,99.90
2018-05-25T07:01:09.276Z,99.90
2018-05-25T07:03:37.590Z,99.90
2018-05-25T07:06:05.136Z,99.90
2018-05-25T07:08:32.669Z,99.90
2018-05-25T07:11:02.167Z,99.90
2018-05-25T07:13:29.739Z,99.90
2018-05-25T07:15:57.457Z,99.90
2018-05-25T07:18:24.988Z,99.90
2018-05-25T07:20:52.520Z,99.90
2018-05-25T07:23:20.165Z,99.90
2018-05-25T07:25:49.159Z,99.90
2018-05-25T07:28:17.573Z,99.90
2018-05-25T07:30:45.151Z,99.90
2018-05-25T07:33:12.729Z,99.90
2018-05-25T07:35:42.098Z,99.90
2018-05-25T07:38:09.731Z,99.90
2018-05-25T07:40:38.365Z,99.90
2018-05-25T07:43:05.967Z,99.90
2018-05-25T07:45:34.329Z,99.90
2018-05-25T07:48:01.909Z,99.90
2018-05-25T07:50:29.507Z,99.90
2018-05-25T07:52:57.117Z,99.90
2018-05-25T07:55:25.469Z,99.90
2018-05-25T07:57:53.072Z,99.90
2018-05-25T08:00:21.497Z,99.90
2018-05-25T08:02:49.136Z,99.90
2018-05-25T08:05:17.999Z,99.90
2018-05-25T08:07:45.546Z,99.90
2018-05-25T08:10:13.175Z,99.90
2018-05-25T08:12:46.382Z,99.90
2018-05-25T08:15:13.968Z,99.90
2018-05-25T08:17:41.518Z,99.90
2018-05-25T08:20:09.823Z,98.40
2018-05-25T08:22:39.127Z,98.40
2018-05-25T08:25:06.694Z,98.20
2018-05-25T08:27:34.240Z,97.60
2018-05-25T08:30:01.794Z,98.20
2018-05-25T08:32:29.369Z,98.50
2018-05-25T08:34:56.954Z,98.60
2018-05-25T08:37:25.412Z,97.20
2018-05-25T08:39:52.968Z,96.60
2018-05-25T08:42:20.533Z,96.60
2018-05-25T08:44:48.074Z,97.70
2018-05-25T08:47:16.641Z,97.10
2018-05-25T08:49:44.219Z,99.60
2018-05-25T08:52:13.014Z,97.80
2018-05-25T08:54:40.595Z,96.10
2018-05-25T08:57:08.349Z,97.70
2018-05-25T08:59:35.907Z,95.60
2018-05-25T09:02:03.809Z,94.60
2018-05-25T09:04:45.808Z,96.40
2018-05-25T09:07:14.244Z,95.70
2018-05-25T09:09:41.837Z,95.40
2018-05-25T09:12:09.379Z,96.20
2018-05-25T09:14:36.924Z,96.10
2018-05-25T09:17:06.125Z,95.40
2018-05-25T09:19:33.684Z,95.00
2018-05-25T09:22:01.217Z,92.10
2018-05-25T09:24:28.764Z,92.70
2018-05-25T09:26:56.541Z,91.50
2018-05-25T09:29:24.115Z,89.60
2018-05-25T09:31:53.085Z,91.30
2018-05-25T09:34:20.627Z,91.00
2018-05-25T09:36:48.156Z,90.40
2018-05-25T09:39:16.499Z,90.10
2018-05-25T09:41:44.937Z,90.00
2018-05-25T09:44:13.258Z,84.40
2018-05-25T09:46:42.113Z,84.40
2018-05-25T09:49:09.662Z,86.30
2018-05-25T09:51:41.454Z,87.90
2018-05-25T09:54:09.023Z,88.10
2018-05-25T09:56:36.693Z,89.00
2018-05-25T09:59:04.263Z,85.40
2018-05-25T10:01:33.524Z,82.50
2018-05-25T10:04:01.078Z,81.60
2018-05-25T10:06:28.758Z,80.90
2018-05-25T10:08:56.328Z,79.80
2018-05-25T10:11:24.993Z,81.20
2018-05-25T10:13:52.553Z,82.70
2018-05-25T10:16:20.115Z,80.20
2018-05-25T10:18:47.677Z,79.90
2018-05-25T10:21:15.229Z,79.50
2018-05-25T10:23:42.792Z,80.60
2018-05-25T10:26:10.374Z,79.00
2018-05-25T10:28:37.923Z,82.40
2018-05-25T10:31:05.502Z,80.20
2018-05-25T10:33:33.028Z,81.60
2018-05-25T10:36:00.576Z,84.10
2018-05-25T10:38:28.136Z,84.20
2018-05-25T10:40:55.825Z,87.90
2018-05-25T10:43:23.382Z,82.40
2018-05-25T10:45:52.472Z,84.70
2018-05-25T10:48:20.020Z,79.10
2018-05-25T10:50:47.662Z,79.10
2018-05-25T10:53:15.257Z,79.90
2018-05-25T10:55:42.822Z,80.50
2018-05-25T10:58:10.400Z,77.20
2018-05-25T11:00:38.683Z,79.30
2018-05-25T11:03:07.014Z,77.40
2018-05-25T11:05:36.074Z,77.60
2018-05-25T11:08:03.603Z,74.00
2018-05-25T11:10:31.164Z,73.80
2018-05-25T11:12:58.730Z,73.60
2018-05-25T11:15:26.288Z,74.90
2018-05-25T11:17:54.649Z,74.80
2018-05-25T11:20:23.556Z,74.60
2018-05-25T11:22:54.706Z,76.20
2018-05-25T11:25:24.152Z,75.40
2018-05-25T11:27:51.736Z,74.10
2018-05-25T11:30:19.299Z,77.10
2018-05-25T11:32:46.858Z,74.20
2018-05-25T11:35:14.537Z,73.30
2018-05-25T11:37:42.868Z,73.30
2018-05-25T11:40:10.422Z,73.30
2018-05-25T11:42:39.415Z,72.50
2018-05-25T11:45:06.974Z,74.40
2018-05-25T11:47:35.042Z,76.10
2018-05-25T11:50:02.616Z,75.80
2018-05-25T11:52:31.469Z,72.20
2018-05-25T11:54:59.008Z,72.90
2018-05-25T11:57:27.340Z,72.70
2018-05-25T11:59:54.888Z,72.70
2018-05-25T12:02:24.026Z,71.50
2018-05-25T12:04:51.574Z,72.20
2018-05-25T12:07:19.129Z,72.40
2018-05-25T12:09:46.675Z,71.50
2018-05-25T12:12:14.955Z,72.80
2018-05-25T12:14:42.566Z,76.30
2018-05-25T12:17:10.852Z,71.40
2018-05-25T12:19:38.388Z,71.50
2018-05-25T12:22:07.640Z,72.70
2018-05-25T12:24:35.200Z,72.80
2018-05-25T12:27:02.758Z,71.50
2018-05-25T12:29:30.333Z,69.20
2018-05-25T12:31:57.873Z,69.80
2018-05-25T12:34:25.445Z,71.90
2018-05-25T12:36:52.993Z,69.60
2018-05-25T12:39:20.551Z,68.90
2018-05-25T12:41:48.134Z,66.30
2018-05-25T12:44:15.696Z,67.30
2018-05-25T12:46:43.238Z,67.90
2018-05-25T12:49:10.815Z,65.80
2018-05-25T12:51:38.364Z,68.10
2018-05-25T12:54:05.957Z,68.40
2018-05-25T12:56:35.982Z,65.40
2018-05-25T12:59:03.530Z,65.40
2018-05-25T13:01:31.860Z,66.90
2018-05-25T13:03:59.496Z,67.60
2018-05-25T13:06:28.849Z,67.60
2018-05-25T13:08:56.412Z,63.00
2018-05-25T13:11:25.967Z,64.90
2018-05-25T13:13:53.528Z,64.30
2018-05-25T13:16:22.233Z,62.10
2018-05-25T13:18:49.774Z,63.70
2018-05-25T13:21:17.336Z,64.90
2018-05-25T13:23:44.918Z,66.30
2018-05-25T13:26:12.489Z,63.50
2018-05-25T13:28:40.051Z,64.00
2018-05-25T13:31:09.127Z,61.90
2018-05-25T13:33:36.668Z,61.90
2018-05-25T13:36:04.211Z,64.80
2018-05-25T13:38:31.749Z,62.40
2018-05-25T13:41:00.767Z,63.50
2018-05-25T13:43:28.325Z,62.10
2018-05-25T13:45:55.880Z,62.60
2018-05-25T13:48:24.198Z,59.40
2018-05-25T13:50:53.313Z,59.40
2018-05-25T13:53:21.632Z,58.50
2018-05-25T13:55:49.192Z,58.60
2018-05-25T13:58:16.769Z,59.60
2018-05-25T14:00:45.432Z,58.70
2018-05-25T14:03:12.999Z,59.80
2018-05-25T14:05:40.568Z,58.60
2018-05-25T14:08:08.163Z,57.10
2018-05-25T14:10:37.593Z,58.10
2018-05-25T14:13:05.900Z,58.40
2018-05-25T14:15:33.671Z,58.40
2018-05-25T14:18:01.225Z,57.40
2018-05-25T14:20:30.133Z,59.00
2018-05-25T14:22:57.683Z,57.70
2018-05-25T14:25:25.225Z,57.00
2018-05-25T14:27:52.788Z,57.90
2018-05-25T14:30:22.168Z,57.60
2018-05-25T14:32:49.789Z,58.00
2018-05-25T14:35:17.433Z,58.50
2018-05-25T14:37:44.989Z,59.00
2018-05-25T14:40:12.620Z,56.50
2018-05-25T14:42:40.189Z,57.10
2018-05-25T14:45:07.768Z,58.30
2018-05-25T14:47:36.566Z,56.50
2018-05-25T14:50:04.193Z,59.70
2018-05-25T14:52:32.963Z,57.40
2018-05-25T14:55:01.272Z,55.90
2018-05-25T14:57:28.925Z,56.00
2018-05-25T14:59:56.494Z,55.80
2018-05-25T15:02:25.347Z,56.20
2018-05-25T15:04:52.917Z,55.90
2018-05-25T15:07:21.638Z,54.90
2018-05-25T15:09:49.217Z,54.00
2018-05-25T15:12:18.174Z,52.30
2018-05-25T15:14:45.797Z,52.00
2018-05-25T15:17:16.076Z,53.30
2018-05-25T15:19:43.645Z,53.00
2018-05-25T15:22:11.187Z,52.40
2018-05-25T15:24:38.753Z,51.60
2018-05-25T15:27:07.498Z,52.10
2018-05-25T15:29:35.498Z,52.50
2018-05-25T15:32:11.580Z,49.70
2018-05-25T15:34:40.436Z,52.10
2018-05-25T15:37:08.277Z,52.10
2018-05-25T15:39:44.714Z,52.50
2018-05-25T15:42:15.154Z,53.20
2018-05-25T15:47:23.588Z,51.00
2018-05-25T15:49:53.661Z,52.20
2018-05-25T15:52:21.333Z,51.30
2018-05-25T15:54:49.115Z,51.70
2018-05-25T15:57:18.030Z,51.10
2018-05-25T15:59:46.231Z,50.90
2018-05-25T16:02:13.970Z,50.10
2018-05-25T16:04:42.429Z,50.40
2018-05-25T16:07:15.145Z,49.70
2018-05-25T16:09:43.209Z,49.80
2018-05-25T16:12:11.979Z,50.30
2018-05-25T16:14:41.271Z,50.20
2018-05-25T16:17:09.626Z,50.10
2018-05-25T16:19:37.552Z,50.70
2018-05-25T16:22:09.000Z,48.20
2018-05-25T16:24:43.348Z,46.80
2018-05-25T16:27:18.177Z,47.20
2018-05-25T16:29:52.313Z,49.30
2018-05-25T16:32:21.208Z,46.50
2018-05-25T16:34:49.620Z,45.00
2018-05-25T16:37:19.061Z,45.00
2018-05-25T16:39:46.647Z,46.40
2018-05-25T16:42:16.776Z,51.50
2018-05-25T16:44:44.378Z,51.60
2018-05-25T16:47:11.960Z,51.80
2018-05-25T16:49:39.525Z,49.30
2018-05-25T16:52:07.133Z,47.00
2018-05-25T16:54:34.661Z,47.60
2018-05-25T16:57:02.215Z,47.60
2018-05-25T16:59:31.945Z,46.70
2018-05-25T17:01:59.850Z,48.20
2018-05-25T17:04:27.473Z,50.50
2018-05-25T17:06:56.235Z,49.80
2018-05-25T17:09:24.664Z,49.90
2018-05-25T17:11:58.561Z,49.90
2018-05-25T17:14:27.672Z,49.80
2018-05-25T17:16:59.825Z,49.20
2018-05-25T17:19:27.473Z,49.40
2018-05-25T17:21:55.443Z,50.20
2018-05-25T17:24:23.238Z,49.80
2018-05-25T17:26:53.787Z,49.10
2018-05-25T17:29:22.019Z,53.80
2018-05-25T17:31:50.406Z,56.20
2018-05-25T17:34:17.920Z,58.80
2018-05-25T17:36:46.240Z,61.30
2018-05-25T17:39:14.921Z,62.30
2018-05-25T17:41:46.437Z,62.30
2018-05-25T17:44:15.760Z,63.30
2018-05-25T17:46:44.327Z,64.00
2018-05-25T17:49:11.909Z,64.00
2018-05-25T17:51:39.812Z,64.30
2018-05-25T17:54:07.347Z,64.20
2018-05-25T17:56:35.028Z,65.10
2018-05-25T17:59:02.590Z,64.70
2018-05-25T18:01:31.659Z,66.20
2018-05-25T18:03:59.224Z,65.00
2018-05-25T18:06:26.949Z,65.50
2018-05-25T18:08:55.351Z,65.90
2018-05-25T18:11:24.317Z,66.70
2018-05-25T18:13:51.976Z,67.00
2018-05-25T18:16:19.637Z,67.70
2018-05-25T18:18:47.237Z,68.40
2018-05-25T18:21:14.835Z,69.20
2018-05-25T18:23:43.473Z,69.60
2018-05-25T18:34:56.121Z,71.70
2018-05-25T18:37:27.280Z,72.40
2018-05-25T18:39:54.881Z,73.20
2018-05-25T18:42:22.445Z,73.80
2018-05-25T18:44:50.001Z,74.00
2018-05-25T18:47:19.166Z,74.60
2018-05-25T18:49:47.689Z,75.00
2018-05-25T18:52:17.441Z,76.10
2018-05-25T18:54:45.001Z,76.10
2018-05-25T18:57:13.825Z,76.50
2018-05-25T18:59:41.507Z,76.60
2018-05-25T19:02:10.305Z,79.40
2018-05-25T19:04:38.677Z,78.30
2018-05-25T19:07:06.640Z,78.30
2018-05-25T19:09:34.212Z,78.40
2018-05-25T19:12:02.991Z,80.50
2018-05-25T19:14:31.325Z,82.60
2018-05-25T19:16:58.908Z,82.60
2018-05-25T19:19:26.554Z,84.50
2018-05-25T19:21:54.852Z,85.60
2018-05-25T19:24:23.482Z,87.90
2018-05-25T19:26:55.101Z,87.90
2018-05-25T19:29:22.730Z,89.10
2018-05-25T19:31:51.759Z,89.80
2018-05-25T19:34:19.341Z,90.40
2018-05-25T19:36:48.022Z,90.60
2018-05-25T19:39:15.602Z,90.90
2018-05-25T19:41:54.046Z,91.40
2018-05-25T19:44:21.684Z,91.90
2018-05-25T19:46:49.331Z,92.60
2018-05-25T19:49:16.941Z,93.20
2018-05-25T19:51:46.252Z,93.80
2018-05-25T19:54:13.847Z,93.90
2018-05-25T19:56:41.534Z,94.20
2018-05-25T19:59:09.128Z,94.50
2018-05-25T20:01:37.637Z,94.90
2018-05-25T20:04:05.275Z,95.20
2018-05-25T20:06:34.233Z,96.00
2018-05-25T20:09:01.799Z,96.30
2018-05-25T20:11:30.835Z,96.80
2018-05-25T20:13:58.384Z,96.70
2018-05-25T20:16:26.882Z,96.90
2018-05-25T20:18:54.574Z,96.90
2018-05-25T20:21:23.814Z,96.90
2018-05-25T20:23:51.423Z,96.90
2018-05-25T20:26:20.173Z,96.90
2018-05-25T20:28:48.549Z,97.50
2018-05-25T20:31:16.945Z,97.80
2018-05-25T20:33:44.680Z,97.80
2018-05-25T20:36:12.370Z,97.90
2018-05-25T20:38:40.013Z,98.10
2018-05-25T20:41:09.650Z,98.90
2018-05-25T20:43:37.274Z,98.80
2018-05-25T20:46:05.009Z,99.00
2018-05-25T20:48:45.360Z,99.90
2018-05-25T20:51:14.578Z,99.90
2018-05-25T20:53:43.102Z,99.90
2018-05-25T20:56:11.888Z,99.90
2018-05-25T20:58:39.505Z,99.90
2018-05-25T21:01:08.374Z,99.90
2018-05-25T21:03:36.115Z,99.90
2018-05-25T21:06:27.761Z,99.90
2018-05-25T21:08:55.365Z,99.90
2018-05-25T21:11:31.849Z,99.90
2018-05-25T21:13:59.476Z,99.90
2018-05-25T21:16:33.839Z,99.90
2018-05-25T21:19:01.461Z,99.90
2018-05-25T21:21:30.161Z,99.90
2018-05-25T21:24:02.359Z,99.90
2018-05-25T21:26:36.838Z,99.90
2018-05-25T21:29:05.424Z,99.90
2018-05-25T21:31:34.553Z,99.90
2018-05-25T21:34:02.104Z,99.90
2018-05-25T21:36:31.436Z,99.90
2018-05-25T21:38:59.084Z,99.90
2018-05-25T21:41:28.124Z,99.90
2018-05-25T21:43:55.757Z,99.90
2018-05-25T21:46:24.281Z,99.90
2018-05-25T21:48:52.746Z,99.90
2018-05-25T21:51:23.594Z,99.90
2018-05-25T21:53:51.976Z,99.90
2018-05-25T21:56:20.870Z,99.90
2018-05-25T21:58:49.300Z,99.90
2018-05-25T22:01:16.902Z,99.90
2018-05-25T22:03:45.290Z,99.90
2018-05-25T22:06:14.582Z,99.90
2018-05-25T22:08:42.968Z,99.90
2018-05-25T22:11:10.547Z,99.90
2018-05-25T22:13:38.122Z,99.90
2018-05-25T22:16:07.506Z,99.90
2018-05-25T22:18:35.137Z,99.90
2018-05-25T22:21:04.058Z,99.90
2018-05-25T22:23:32.484Z,99.90
2018-05-25T22:26:01.621Z,99.90
2018-05-25T22:28:29.212Z,99.90
2018-05-25T22:30:57.904Z,99.90
2018-05-25T22:33:25.564Z,99.90
2018-05-25T22:35:54.333Z,99.90
2018-05-25T22:38:22.913Z,99.90
2018-05-25T22:40:51.749Z,99.90
2018-05-25T22:43:31.168Z,99.90
2018-05-25T22:49:04.528Z,99.90
2018-05-25T22:51:44.099Z,99.90
2018-05-25T22:54:17.468Z,99.90
2018-05-25T22:56:45.128Z,99.90
2018-05-25T22:59:13.571Z,99.90
2018-05-25T23:01:41.173Z,99.90
2018-05-25T23:04:08.756Z,99.90
2018-05-25T23:06:47.065Z,99.90
2018-05-25T23:12:08.983Z,99.90
2018-05-25T23:14:37.372Z,99.90
2018-05-25T23:17:05.008Z,99.90
2018-05-25T23:19:33.442Z,99.90
2018-05-25T23:22:01.013Z,99.90
2018-05-25T23:24:28.681Z,99.90
2018-05-25T23:26:57.249Z,99.90
2018-05-25T23:29:24.816Z,99.90
2018-05-25T23:31:52.472Z,99.90
2018-05-25T23:34:20.117Z,99.90
2018-05-25T23:36:49.549Z,99.90
2018-05-25T23:39:17.202Z,99.90
2018-05-25T23:41:44.779Z,99.90
2018-05-25T23:44:12.401Z,99.90
2018-05-25T23:46:41.553Z,99.90
2018-05-25T23:49:09.929Z,99.90
2018-05-25T23:51:38.374Z,99.90
2018-05-25T23:54:05.985Z,99.90
2018-05-25T23:56:35.835Z,99.90
2018-05-25T23:59:03.442Z,99.90
